createdAt,value
2018-07-11T00:00:34.932Z,2.43
2018-07-11T00:03:02.400Z,2.43
2018-07-11T00:05:29.920Z,2.20
2018-07-11T00:07:57.378Z,2.40
2018-07-11T00:10:24.875Z,2.77
2018-07-11T00:12:52.326Z,2.50
2018-07-11T00:15:19.787Z,2.50
2018-07-11T00:17:47.258Z,2.70
2018-07-11T00:20:14.708Z,2.50
2018-07-11T00:22:42.160Z,2.10
2018-07-11T00:25:09.614Z,2.73
2018-07-11T00:27:37.075Z,3.00
2018-07-11T00:30:04.542Z,2.30
2018-07-11T00:32:31.988Z,2.60
2018-07-11T00:34:59.679Z,3.40
2018-07-11T00:37:27.220Z,2.67
2018-07-11T00:39:54.590Z,2.40
2018-07-11T00:42:22.056Z,2.50
2018-07-11T00:44:49.523Z,2.93
2018-07-11T00:47:17.031Z,2.87
2018-07-11T00:49:44.491Z,2.53
2018-07-11T00:52:11.967Z,2.53
2018-07-11T00:54:40.225Z,3.13
2018-07-11T00:57:07.681Z,2.77
2018-07-11T00:59:35.251Z,4.20
2018-07-11T01:02:02.707Z,2.20
2018-07-11T01:04:30.159Z,2.73
2018-07-11T01:06:57.624Z,2.43
2018-07-11T01:09:25.191Z,3.47
2018-07-11T01:11:52.644Z,2.57
2018-07-11T01:14:20.103Z,2.77
2018-07-11T01:16:47.560Z,2.77
2018-07-11T01:19:15.050Z,3.00
2018-07-11T01:21:42.618Z,3.10
2018-07-11T01:24:10.072Z,3.13
2018-07-11T01:26:37.526Z,2.70
2018-07-11T01:29:04.999Z,2.37
2018-07-11T01:31:32.483Z,2.43
2018-07-11T01:34:00.036Z,2.43
2018-07-11T01:36:27.587Z,2.90
2018-07-11T01:38:55.036Z,3.63
2018-07-11T01:41:22.512Z,2.83
2018-07-11T01:43:49.967Z,2.27
2018-07-11T01:46:17.432Z,2.80
2018-07-11T01:48:44.997Z,2.63
2018-07-11T01:51:12.476Z,2.73
2018-07-11T01:53:39.922Z,2.87
2018-07-11T01:56:07.491Z,2.80
2018-07-11T01:58:34.955Z,2.83
2018-07-11T02:01:02.416Z,2.33
2018-07-11T02:03:29.970Z,3.43
2018-07-11T02:05:57.435Z,2.87
2018-07-11T02:08:24.906Z,2.20
2018-07-11T02:10:52.466Z,3.00
2018-07-11T02:13:19.922Z,2.90
2018-07-11T02:15:47.492Z,3.10
2018-07-11T02:18:15.049Z,2.67
2018-07-11T02:20:42.578Z,3.53
2018-07-11T02:23:10.031Z,3.00
2018-07-11T02:25:37.491Z,2.80
2018-07-11T02:28:04.996Z,3.10
2018-07-11T02:30:32.918Z,3.30
2018-07-11T02:33:01.140Z,3.97
2018-07-11T02:35:28.591Z,2.77
2018-07-11T02:37:56.044Z,3.47
2018-07-11T02:40:23.505Z,2.60
2018-07-11T02:42:50.957Z,3.27
2018-07-11T02:45:18.428Z,3.10
2018-07-11T02:47:45.925Z,4.43
2018-07-11T02:50:13.497Z,3.50
2018-07-11T02:52:40.942Z,3.23
2018-07-11T02:55:08.400Z,3.53
2018-07-11T02:57:35.866Z,2.97
2018-07-11T03:00:03.323Z,3.10
2018-07-11T03:02:30.792Z,3.07
2018-07-11T03:04:58.244Z,3.47
2018-07-11T03:07:26.192Z,2.83
2018-07-11T03:09:53.652Z,3.20
2018-07-11T03:12:21.123Z,3.10
2018-07-11T03:14:48.572Z,3.23
2018-07-11T03:17:16.043Z,3.00
2018-07-11T03:19:43.541Z,2.83
2018-07-11T03:22:10.989Z,2.70
2018-07-11T03:24:38.452Z,2.87
2018-07-11T03:27:05.908Z,2.97
2018-07-11T03:29:33.363Z,2.57
2018-07-11T03:32:00.810Z,3.10
2018-07-11T03:34:28.271Z,3.33
2018-07-11T03:36:55.743Z,3.07
2018-07-11T03:39:23.186Z,3.30
2018-07-11T03:41:50.650Z,3.10
2018-07-11T03:44:18.111Z,3.27
2018-07-11T03:46:45.625Z,3.17
2018-07-11T03:49:13.082Z,3.70
2018-07-11T03:51:40.559Z,3.20
2018-07-11T03:54:08.014Z,2.90
2018-07-11T03:56:35.572Z,3.37
2018-07-11T03:59:03.149Z,2.80
2018-07-11T04:01:30.591Z,3.20
2018-07-11T04:03:58.047Z,4.43
2018-07-11T04:06:25.620Z,3.03
2018-07-11T04:08:53.082Z,3.80
2018-07-11T04:11:20.556Z,3.67
2018-07-11T04:13:48.115Z,3.10
2018-07-11T04:16:16.312Z,2.77
2018-07-11T04:18:43.862Z,3.63
2018-07-11T04:21:11.431Z,3.20
2018-07-11T04:23:38.891Z,3.40
2018-07-11T04:26:06.356Z,3.13
2018-07-11T04:28:33.909Z,3.60
2018-07-11T04:31:01.370Z,3.17
2018-07-11T04:33:28.907Z,3.20
2018-07-11T04:35:56.311Z,3.27
2018-07-11T04:38:23.775Z,3.00
2018-07-11T04:40:52.036Z,3.40
2018-07-11T04:43:19.486Z,3.97
2018-07-11T04:45:46.953Z,2.63
2018-07-11T04:48:14.536Z,3.43
2018-07-11T04:50:41.993Z,3.07
2018-07-11T04:53:09.443Z,3.20
2018-07-11T04:55:37.025Z,3.00
2018-07-11T04:58:04.483Z,2.77
2018-07-11T05:00:32.720Z,2.83
2018-07-11T05:03:00.692Z,3.37
2018-07-11T05:05:28.196Z,2.90
2018-07-11T05:07:55.647Z,3.10
2018-07-11T05:10:23.104Z,2.83
2018-07-11T05:12:50.551Z,2.70
2018-07-11T05:15:18.028Z,2.50
2018-07-11T05:17:45.482Z,2.60
2018-07-11T05:20:13.880Z,3.00
2018-07-11T05:22:41.448Z,2.57
2018-07-11T05:25:08.918Z,2.90
2018-07-11T05:27:36.484Z,3.47
2018-07-11T05:30:04.041Z,3.40
2018-07-11T05:32:31.552Z,2.10
2018-07-11T05:34:59.067Z,3.10
2018-07-11T05:37:26.531Z,2.70
2018-07-11T05:39:54.186Z,2.10
2018-07-11T05:42:21.676Z,3.13
2018-07-11T05:44:49.105Z,2.13
2018-07-11T05:47:16.682Z,2.53
2018-07-11T05:49:44.142Z,2.50
2018-07-11T05:52:11.655Z,2.97
2018-07-11T05:54:39.080Z,2.63
2018-07-11T05:57:06.627Z,2.33
2018-07-11T05:59:34.091Z,2.63
2018-07-11T06:02:01.662Z,2.37
2018-07-11T06:04:29.123Z,2.97
2018-07-11T06:06:56.609Z,2.60
2018-07-11T06:09:24.149Z,2.30
2018-07-11T06:11:51.609Z,2.27
2018-07-11T06:14:19.068Z,2.20
2018-07-11T06:16:46.531Z,2.53
2018-07-11T06:19:13.984Z,2.37
2018-07-11T06:21:41.443Z,2.40
2018-07-11T06:24:08.924Z,2.17
2018-07-11T06:26:36.389Z,2.43
2018-07-11T06:29:03.848Z,2.70
2018-07-11T06:31:31.410Z,2.60
2018-07-11T06:33:58.975Z,2.10
2018-07-11T06:36:26.433Z,2.50
2018-07-11T06:38:53.905Z,2.10
2018-07-11T06:41:21.381Z,2.00
2018-07-11T06:43:48.926Z,2.40
2018-07-11T06:46:16.393Z,2.97
2018-07-11T06:48:43.857Z,2.40
2018-07-11T06:51:12.130Z,2.67
2018-07-11T06:53:39.581Z,1.90
2018-07-11T06:56:07.088Z,1.93
2018-07-11T06:58:34.616Z,1.90
2018-07-11T07:01:03.584Z,2.07
2018-07-11T07:03:31.074Z,2.20
2018-07-11T07:05:58.522Z,1.90
2018-07-11T07:08:25.978Z,1.63
2018-07-11T07:10:53.534Z,2.43
2018-07-11T07:13:20.992Z,2.00
2018-07-11T07:15:48.451Z,2.10
2018-07-11T07:18:15.958Z,2.10
2018-07-11T07:20:43.507Z,2.03
2018-07-11T07:23:10.961Z,1.80
2018-07-11T07:25:38.436Z,1.63
2018-07-11T07:28:05.995Z,1.43
2018-07-11T07:30:33.448Z,1.97
2018-07-11T07:33:00.916Z,1.50
2018-07-11T07:35:28.495Z,1.67
2018-07-11T07:37:55.955Z,1.23
2018-07-11T07:40:23.787Z,1.40
2018-07-11T07:42:51.254Z,1.47
2018-07-11T07:45:18.717Z,1.17
2018-07-11T07:47:46.210Z,1.40
2018-07-11T07:50:13.672Z,1.33
2018-07-11T07:52:41.255Z,1.30
2018-07-11T07:55:08.749Z,1.47
2018-07-11T07:57:36.948Z,1.20
2018-07-11T08:00:04.447Z,1.40
2018-07-11T08:02:31.912Z,1.23
2018-07-11T08:04:59.360Z,1.30
2018-07-11T08:07:26.912Z,1.20
2018-07-11T08:09:54.370Z,1.30
2018-07-11T08:12:21.836Z,1.27
2018-07-11T08:14:49.293Z,1.93
2018-07-11T08:17:16.766Z,1.30
2018-07-11T08:19:44.327Z,1.47
2018-07-11T08:22:12.281Z,1.37
2018-07-11T08:27:53.881Z,1.60
2018-07-11T08:30:21.337Z,1.60
2018-07-11T08:32:49.692Z,1.33
2018-07-11T08:35:17.204Z,1.33
2018-07-11T08:37:44.670Z,1.30
2018-07-11T08:40:12.233Z,1.00
2018-07-11T08:42:39.691Z,1.40
2018-07-11T08:45:07.253Z,1.07
2018-07-11T08:47:34.722Z,1.30
2018-07-11T08:50:02.282Z,1.60
2018-07-11T08:52:29.728Z,1.57
2018-07-11T08:54:57.200Z,1.50
2018-07-11T08:57:24.668Z,1.37
2018-07-11T08:59:52.229Z,1.77
2018-07-11T09:02:19.786Z,1.70
2018-07-11T09:04:47.255Z,1.50
2018-07-11T09:07:14.715Z,1.50
2018-07-11T09:09:42.171Z,1.70
2018-07-11T09:12:09.625Z,1.20
2018-07-11T09:14:37.102Z,1.60
2018-07-11T09:17:04.567Z,2.00
2018-07-11T09:19:32.011Z,1.40
2018-07-11T09:21:59.476Z,1.50
2018-07-11T09:24:26.994Z,1.33
2018-07-11T09:26:54.432Z,1.60
2018-07-11T09:29:21.939Z,2.07
2018-07-11T09:31:49.391Z,1.70
2018-07-11T09:34:16.847Z,1.63
2018-07-11T09:36:45.067Z,1.77
2018-07-11T09:39:12.534Z,1.60
2018-07-11T09:41:39.991Z,1.47
2018-07-11T09:44:07.453Z,1.90
2018-07-11T09:46:34.929Z,1.80
2018-07-11T09:49:02.387Z,1.67
2018-07-11T09:51:30.327Z,1.57
2018-07-11T09:53:57.843Z,1.53
2018-07-11T09:56:25.316Z,1.73
2018-07-11T09:58:53.573Z,1.60
2018-07-11T10:01:21.019Z,1.57
2018-07-11T10:03:48.512Z,1.63
2018-07-11T10:06:15.955Z,1.60
2018-07-11T10:08:43.520Z,1.73
2018-07-11T10:11:10.977Z,1.70
2018-07-11T10:13:38.553Z,1.50
2018-07-11T10:16:06.828Z,1.80
2018-07-11T10:18:34.289Z,1.77
2018-07-11T10:21:01.747Z,1.97
2018-07-11T10:23:29.217Z,2.17
2018-07-11T10:25:56.678Z,1.70
2018-07-11T10:28:24.612Z,1.60
2018-07-11T10:30:52.065Z,1.50
2018-07-11T10:33:19.542Z,1.70
2018-07-11T10:35:47.040Z,1.60
2018-07-11T10:38:14.606Z,1.90
2018-07-11T10:40:42.163Z,2.27
2018-07-11T10:43:09.620Z,1.70
2018-07-11T10:45:37.199Z,1.80
2018-07-11T10:48:04.674Z,1.70
2018-07-11T10:50:32.253Z,1.37
2018-07-11T10:52:59.788Z,1.67
2018-07-11T10:55:27.291Z,1.63
2018-07-11T10:57:55.574Z,2.13
2018-07-11T11:00:35.969Z,2.17
2018-07-11T11:02:50.619Z,1.90
2018-07-11T11:05:18.017Z,1.80
2018-07-11T11:07:45.508Z,1.90
2018-07-11T11:10:13.736Z,1.87
2018-07-11T11:12:41.192Z,1.73
2018-07-11T11:15:08.677Z,1.73
2018-07-11T11:17:36.144Z,1.60
2018-07-11T11:20:03.595Z,1.60
2018-07-11T11:22:31.815Z,2.00
2018-07-11T11:25:00.150Z,1.77
2018-07-11T11:27:27.612Z,1.63
2018-07-11T11:29:55.059Z,1.77
2018-07-11T11:32:22.564Z,1.57
2018-07-11T11:34:50.051Z,1.77
2018-07-11T11:37:18.292Z,1.73
2018-07-11T11:39:45.891Z,1.83
2018-07-11T11:42:14.430Z,1.90
2018-07-11T11:44:41.577Z,2.10
2018-07-11T11:47:09.046Z,1.80
2018-07-11T11:49:36.538Z,1.53
2018-07-11T11:52:05.206Z,1.70
2018-07-11T11:54:32.684Z,2.27
2018-07-11T11:57:00.128Z,2.53
2018-07-11T11:59:27.593Z,1.80
2018-07-11T12:01:55.061Z,2.43
2018-07-11T12:04:22.510Z,2.10
2018-07-11T12:06:49.979Z,2.10
2018-07-11T12:09:17.427Z,2.13
2018-07-11T12:11:44.888Z,1.60
2018-07-11T12:14:12.340Z,1.93
2018-07-11T12:16:39.811Z,2.23
2018-07-11T12:19:07.268Z,2.03
2018-07-11T12:21:34.828Z,1.80
2018-07-11T12:24:02.321Z,2.07
2018-07-11T12:26:29.792Z,1.80
2018-07-11T12:28:57.237Z,1.90
2018-07-11T12:31:24.810Z,2.03
2018-07-11T12:33:52.367Z,2.10
2018-07-11T12:36:19.824Z,1.93
2018-07-11T12:38:47.291Z,2.27
2018-07-11T12:41:14.854Z,1.77
2018-07-11T12:43:42.324Z,1.60
2018-07-11T12:46:09.947Z,1.80
2018-07-11T12:51:29.875Z,1.85
2018-07-11T12:53:57.343Z,1.67
2018-07-11T12:56:24.920Z,1.57
2018-07-11T12:58:52.460Z,1.67
2018-07-11T13:01:19.928Z,1.70
2018-07-11T13:03:47.376Z,1.70
2018-07-11T13:06:14.854Z,1.80
2018-07-11T13:08:42.315Z,1.70
2018-07-11T13:11:09.884Z,2.20
2018-07-11T13:13:37.345Z,1.70
2018-07-11T13:16:05.538Z,1.67
2018-07-11T13:18:33.004Z,1.40
2018-07-11T13:21:00.444Z,1.47
2018-07-11T13:23:27.899Z,1.63
2018-07-11T13:25:55.377Z,1.50
2018-07-11T13:28:22.935Z,1.40
2018-07-11T13:30:50.545Z,1.60
2018-07-11T13:33:17.949Z,1.60
2018-07-11T13:35:45.436Z,2.00
2018-07-11T13:38:12.929Z,1.53
2018-07-11T13:40:40.344Z,1.83
2018-07-11T13:43:07.799Z,1.50
2018-07-11T13:45:35.277Z,1.20
2018-07-11T13:48:02.723Z,1.23
2018-07-11T13:50:30.177Z,1.33
2018-07-11T13:52:57.660Z,1.50
2018-07-11T13:55:25.139Z,1.27
2018-07-11T13:57:52.609Z,1.40
2018-07-11T14:00:20.864Z,1.53
2018-07-11T14:02:48.324Z,1.37
2018-07-11T14:05:15.891Z,1.40
2018-07-11T14:07:43.458Z,1.70
2018-07-11T14:10:10.924Z,1.40
2018-07-11T14:12:38.390Z,1.70
2018-07-11T14:15:05.839Z,1.50
2018-07-11T14:17:33.302Z,1.50
2018-07-11T14:20:00.784Z,2.17
2018-07-11T14:22:28.223Z,1.70
2018-07-11T14:24:55.796Z,1.60
2018-07-11T14:27:23.360Z,1.40
2018-07-11T14:29:50.841Z,2.00
2018-07-11T14:32:18.385Z,1.60
2018-07-11T14:34:45.947Z,1.53
2018-07-11T14:37:13.411Z,1.57
2018-07-11T14:39:40.872Z,1.60
2018-07-11T14:42:08.320Z,1.73
2018-07-11T14:44:35.901Z,1.93
2018-07-11T14:47:03.367Z,1.90
2018-07-11T14:49:30.815Z,1.73
2018-07-11T14:51:58.277Z,1.80
2018-07-11T14:54:25.749Z,1.90
2018-07-11T14:56:53.206Z,2.80
2018-07-11T14:59:20.780Z,1.80
2018-07-11T15:01:48.237Z,1.70
2018-07-11T15:04:15.699Z,2.03
2018-07-11T15:06:43.160Z,2.30
2018-07-11T15:09:10.816Z,2.23
2018-07-11T15:11:39.635Z,2.90
2018-07-11T15:14:07.896Z,3.17
2018-07-11T15:16:35.358Z,2.50
2018-07-11T15:19:03.645Z,4.97
2018-07-11T15:21:31.087Z,3.93
2018-07-11T15:23:59.327Z,3.20
2018-07-11T15:26:27.540Z,2.47
2018-07-11T15:28:55.030Z,3.63
2018-07-11T15:31:22.523Z,3.63
2018-07-11T15:33:50.753Z,2.90
2018-07-11T15:36:18.212Z,3.43
2018-07-11T15:38:45.684Z,3.07
2018-07-11T15:41:13.161Z,5.67
2018-07-11T15:43:40.716Z,5.30
2018-07-11T15:46:08.180Z,4.00
2018-07-11T15:48:35.648Z,3.53
2018-07-11T15:51:03.162Z,3.00
2018-07-11T15:53:30.692Z,2.80
2018-07-11T15:55:58.080Z,2.53
2018-07-11T15:58:25.547Z,2.40
2018-07-11T16:00:53.012Z,2.20
2018-07-11T16:03:20.463Z,2.03
2018-07-11T16:05:47.964Z,2.30
2018-07-11T16:08:16.159Z,2.50
2018-07-11T16:10:43.733Z,2.33
2018-07-11T16:13:11.197Z,2.10
2018-07-11T16:15:40.181Z,2.43
2018-07-11T16:18:07.741Z,2.37
2018-07-11T16:20:35.190Z,2.30
2018-07-11T16:23:02.826Z,2.30
2018-07-11T16:25:31.778Z,2.30
2018-07-11T16:27:59.236Z,2.43
2018-07-11T16:30:28.494Z,1.87
2018-07-11T16:32:55.959Z,2.13
2018-07-11T16:35:23.415Z,2.10
2018-07-11T16:37:50.867Z,2.10
2018-07-11T16:40:18.324Z,2.30
2018-07-11T16:42:45.775Z,2.07
2018-07-11T16:45:14.016Z,2.10
2018-07-11T16:47:41.485Z,2.13
2018-07-11T16:50:08.932Z,2.23
2018-07-11T16:52:36.389Z,1.87
2018-07-11T16:55:03.875Z,1.87
2018-07-11T16:57:31.340Z,2.20
2018-07-11T16:59:58.838Z,1.97
2018-07-11T17:02:26.257Z,1.73
2018-07-11T17:04:53.711Z,1.87
2018-07-11T17:07:22.365Z,1.90
2018-07-11T17:09:49.864Z,2.17
2018-07-11T17:12:17.321Z,1.97
2018-07-11T17:14:44.774Z,2.00
2018-07-11T17:17:12.229Z,2.03
2018-07-11T17:19:39.675Z,1.90
2018-07-11T17:22:07.144Z,2.00
2018-07-11T17:24:34.608Z,1.53
2018-07-11T17:27:02.079Z,1.90
2018-07-11T17:29:29.560Z,1.83
2018-07-11T17:31:57.031Z,2.83
2018-07-11T17:34:24.488Z,1.83
2018-07-11T17:36:51.962Z,1.90
2018-07-11T17:39:19.513Z,1.80
2018-07-11T17:41:46.972Z,2.10
2018-07-11T17:44:14.443Z,1.97
2018-07-11T17:46:41.960Z,1.70
2018-07-11T17:49:09.419Z,1.97
2018-07-11T17:51:36.924Z,2.10
2018-07-11T17:54:04.489Z,2.23
2018-07-11T17:56:31.950Z,2.00
2018-07-11T17:58:59.523Z,2.30
2018-07-11T18:01:27.756Z,1.70
2018-07-11T18:03:55.268Z,1.80
2018-07-11T18:06:22.818Z,2.00
2018-07-11T18:08:50.278Z,2.00
2018-07-11T18:11:17.740Z,2.00
2018-07-11T18:13:45.311Z,1.90
2018-07-11T18:16:12.779Z,1.90
2018-07-11T18:18:40.335Z,2.10
2018-07-11T18:21:07.797Z,1.87
2018-07-11T18:23:35.256Z,2.70
2018-07-11T18:26:02.827Z,2.10
2018-07-11T18:28:30.283Z,2.13
2018-07-11T18:30:57.893Z,2.53
2018-07-11T18:33:26.126Z,2.63
2018-07-11T18:35:53.604Z,2.40
2018-07-11T18:38:21.054Z,2.20
2018-07-11T18:40:48.638Z,2.50
2018-07-11T18:43:16.196Z,2.03
2018-07-11T18:45:43.648Z,2.47
2018-07-11T18:48:11.131Z,2.17
2018-07-11T18:50:38.596Z,2.20
2018-07-11T18:53:06.809Z,2.70
2018-07-11T18:55:34.279Z,2.33
2018-07-11T18:58:01.764Z,2.20
2018-07-11T19:00:29.235Z,2.77
2018-07-11T19:02:58.284Z,2.40
2018-07-11T19:05:25.801Z,2.13
2018-07-11T19:07:53.263Z,2.80
2018-07-11T19:10:20.823Z,2.83
2018-07-11T19:12:48.409Z,2.70
2018-07-11T19:15:15.866Z,2.50
2018-07-11T19:17:43.315Z,2.60
2018-07-11T19:20:10.783Z,2.30
2018-07-11T19:22:39.057Z,2.73
2018-07-11T19:25:06.675Z,2.67
2018-07-11T19:27:34.863Z,2.33
2018-07-11T19:30:02.326Z,2.37
2018-07-11T19:32:29.884Z,3.50
2018-07-11T19:34:57.347Z,2.93
2018-07-11T19:37:24.820Z,3.07
2018-07-11T19:39:52.325Z,3.00
2018-07-11T19:42:19.785Z,2.93
2018-07-11T19:44:47.238Z,2.47
2018-07-11T19:47:14.802Z,2.53
2018-07-11T19:49:42.259Z,2.70
2018-07-11T19:52:09.712Z,2.87
2018-07-11T19:54:37.287Z,2.33
2018-07-11T19:57:04.735Z,1.83
2018-07-11T19:59:32.222Z,2.57
2018-07-11T20:01:59.671Z,2.60
2018-07-11T20:04:27.144Z,2.80
2018-07-11T20:06:54.609Z,2.70
2018-07-11T20:09:22.170Z,2.67
2018-07-11T20:11:49.730Z,2.50
2018-07-11T20:14:17.187Z,2.73
2018-07-11T20:16:44.763Z,2.73
2018-07-11T20:19:12.207Z,2.60
2018-07-11T20:21:39.768Z,3.13
2018-07-11T20:24:07.243Z,2.67
2018-07-11T20:26:34.804Z,2.53
2018-07-11T20:29:02.271Z,2.40
2018-07-11T20:31:29.744Z,3.03
2018-07-11T20:33:58.739Z,2.53
2018-07-11T20:36:26.204Z,3.17
2018-07-11T20:38:54.428Z,3.33
2018-07-11T20:41:21.877Z,2.70
2018-07-11T20:43:49.361Z,3.60
2018-07-11T20:46:16.948Z,2.80
2018-07-11T20:48:44.280Z,2.57
2018-07-11T20:51:11.740Z,4.27
2018-07-11T20:53:39.236Z,3.17
2018-07-11T20:56:06.705Z,2.47
2018-07-11T20:58:55.039Z,2.73
2018-07-11T21:01:34.501Z,5.47
2018-07-11T21:04:01.934Z,11.23
2018-07-11T21:06:29.420Z,10.97
2018-07-11T21:10:28.247Z,4.80
2018-07-11T21:12:55.715Z,4.13
2018-07-11T21:15:23.179Z,3.13
2018-07-11T21:17:51.461Z,3.03
2018-07-11T21:20:18.934Z,3.23
2018-07-11T21:22:46.399Z,3.20
2018-07-11T21:25:13.855Z,3.00
2018-07-11T21:27:41.407Z,3.10
2018-07-11T21:30:08.871Z,3.03
2018-07-11T21:32:36.339Z,3.10
2018-07-11T21:35:04.381Z,2.77
2018-07-11T21:37:31.871Z,3.07
2018-07-11T21:39:59.431Z,2.47
2018-07-11T21:42:26.983Z,3.33
2018-07-11T21:44:54.548Z,3.17
2018-07-11T21:47:21.995Z,2.73
2018-07-11T21:49:49.464Z,2.73
2018-07-11T21:52:16.923Z,2.63
2018-07-11T21:54:44.396Z,2.37
2018-07-11T21:57:11.860Z,2.50
2018-07-11T21:59:39.320Z,2.93
2018-07-11T22:02:06.786Z,3.17
2018-07-11T22:04:34.234Z,2.70
2018-07-11T22:07:01.808Z,2.93
2018-07-11T22:09:29.372Z,2.70
2018-07-11T22:11:57.195Z,3.13
2018-07-11T22:14:24.710Z,3.37
2018-07-11T22:16:52.165Z,2.40
2018-07-11T22:19:20.006Z,3.50
2018-07-11T22:21:46.716Z,2.73
2018-07-11T22:24:14.560Z,3.97
2018-07-11T22:26:41.611Z,3.20
2018-07-11T22:29:08.623Z,2.63
2018-07-11T22:31:35.583Z,3.47
2018-07-11T22:34:02.564Z,3.47
2018-07-11T22:36:29.604Z,2.73
2018-07-11T22:38:56.576Z,3.60
2018-07-11T22:41:23.544Z,2.80
2018-07-11T22:43:51.270Z,3.47
2018-07-11T22:46:18.341Z,3.17
2018-07-11T22:48:45.465Z,3.23
2018-07-11T22:51:12.423Z,2.77
2018-07-11T22:53:39.411Z,3.30
2018-07-11T22:56:06.435Z,3.07
2018-07-11T22:58:33.412Z,2.33
2018-07-11T23:01:01.145Z,2.60
2018-07-11T23:03:28.216Z,2.70
2018-07-11T23:05:55.278Z,3.00
2018-07-11T23:08:22.261Z,3.20
2018-07-11T23:10:50.093Z,2.77
2018-07-11T23:13:17.050Z,3.13
2018-07-11T23:15:45.529Z,2.90
2018-07-11T23:18:12.490Z,3.37
2018-07-11T23:20:39.536Z,3.03
2018-07-11T23:23:06.503Z,2.70
2018-07-11T23:25:35.078Z,3.00
2018-07-11T23:28:02.047Z,2.93
2018-07-11T23:30:29.783Z,2.53
2018-07-11T23:32:56.751Z,2.80
2018-07-11T23:35:24.483Z,2.37
2018-07-11T23:37:51.564Z,2.27
2018-07-11T23:40:18.524Z,2.80
2018-07-11T23:42:45.492Z,2.50
2018-07-11T23:45:13.245Z,2.47
2018-07-11T23:47:40.284Z,2.60
2018-07-11T23:50:07.331Z,2.53
2018-07-11T23:52:34.391Z,3.10
2018-07-11T23:55:01.439Z,2.70
2018-07-11T23:57:28.406Z,2.00
2018-07-11T23:59:55.452Z,3.40
